sensor_id;sensor_type;location;lat;lon;timestamp;P1;durP1;ratioP1;P2;durP2;ratioP2
48629;SDS011;34426;52.180;4.462;2023-04-02T00:00:13;18.40;;;10.85;;
48629;SDS011;34426;52.180;4.462;2023-04-02T00:02:48;20.45;;;10.98;;
48629;SDS011;34426;52.180;4.462;2023-04-02T00:05:38;17.58;;;10.77;;
48629;SDS011;34426;52.180;4.462;2023-04-02T00:08:23;17.60;;;11.10;;
48629;SDS011;34426;52.180;4.462;2023-04-02T00:13:54;21.20;;;11.48;;
48629;SDS011;34426;52.180;4.462;2023-04-02T00:16:29;16.70;;;10.60;;
48629;SDS011;34426;52.180;4.462;2023-04-02T00:19:01;19.40;;;10.82;;
48629;SDS011;34426;52.180;4.462;2023-04-02T00:21:35;19.40;;;10.87;;
48629;SDS011;34426;52.180;4.462;2023-04-02T00:24:07;24.25;;;11.88;;
48629;SDS011;34426;52.180;4.462;2023-04-02T00:26:46;20.73;;;10.63;;
48629;SDS011;34426;52.180;4.462;2023-04-02T00:29:15;21.15;;;10.55;;
48629;SDS011;34426;52.180;4.462;2023-04-02T00:31:47;19.33;;;10.45;;
48629;SDS011;34426;52.180;4.462;2023-04-02T00:34:24;20.55;;;10.02;;
48629;SDS011;34426;52.180;4.462;2023-04-02T00:36:56;21.38;;;10.18;;
48629;SDS011;34426;52.180;4.462;2023-04-02T00:39:25;17.95;;;9.85;;
48629;SDS011;34426;52.180;4.462;2023-04-02T00:41:56;20.65;;;10.52;;
48629;SDS011;34426;52.180;4.462;2023-04-02T00:44:39;20.80;;;11.13;;
48629;SDS011;34426;52.180;4.462;2023-04-02T00:47:13;20.42;;;10.80;;
48629;SDS011;34426;52.180;4.462;2023-04-02T00:50:02;18.08;;;10.65;;
48629;SDS011;34426;52.180;4.462;2023-04-02T00:52:45;16.50;;;10.05;;
48629;SDS011;34426;52.180;4.462;2023-04-02T00:55:20;18.83;;;9.48;;
48629;SDS011;34426;52.180;4.462;2023-04-02T00:57:58;23.92;;;9.43;;
48629;SDS011;34426;52.180;4.462;2023-04-02T01:00:29;20.45;;;9.77;;
48629;SDS011;34426;52.180;4.462;2023-04-02T01:06:03;18.25;;;8.63;;
48629;SDS011;34426;52.180;4.462;2023-04-02T01:08:51;15.77;;;8.70;;
48629;SDS011;34426;52.180;4.462;2023-04-02T01:11:32;14.52;;;7.88;;
48629;SDS011;34426;52.180;4.462;2023-04-02T01:14:22;16.85;;;7.82;;
48629;SDS011;34426;52.180;4.462;2023-04-02T01:17:03;12.40;;;7.55;;
48629;SDS011;34426;52.180;4.462;2023-04-02T01:19:57;13.70;;;7.70;;
48629;SDS011;34426;52.180;4.462;2023-04-02T01:22:44;17.23;;;7.93;;
48629;SDS011;34426;52.180;4.462;2023-04-02T01:25:18;17.08;;;7.85;;
48629;SDS011;34426;52.180;4.462;2023-04-02T01:27:55;13.93;;;7.38;;
48629;SDS011;34426;52.180;4.462;2023-04-02T01:30:53;12.60;;;7.03;;
48629;SDS011;34426;52.180;4.462;2023-04-02T01:33:41;14.93;;;7.28;;
48629;SDS011;34426;52.180;4.462;2023-04-02T01:36:14;16.42;;;7.28;;
48629;SDS011;34426;52.180;4.462;2023-04-02T01:38:52;18.02;;;7.30;;
48629;SDS011;34426;52.180;4.462;2023-04-02T01:41:37;16.08;;;8.05;;
48629;SDS011;34426;52.180;4.462;2023-04-02T01:44:12;14.75;;;7.00;;
48629;SDS011;34426;52.180;4.462;2023-04-02T01:49:32;18.25;;;7.22;;
48629;SDS011;34426;52.180;4.462;2023-04-02T01:52:06;15.65;;;7.40;;
48629;SDS011;34426;52.180;4.462;2023-04-02T01:57:26;15.38;;;8.23;;
48629;SDS011;34426;52.180;4.462;2023-04-02T01:59:54;21.38;;;7.47;;
48629;SDS011;34426;52.180;4.462;2023-04-02T02:02:26;16.52;;;7.80;;
48629;SDS011;34426;52.180;4.462;2023-04-02T02:04:57;19.05;;;8.88;;
48629;SDS011;34426;52.180;4.462;2023-04-02T02:07:25;16.20;;;8.20;;
48629;SDS011;34426;52.180;4.462;2023-04-02T02:10:00;19.13;;;9.10;;
48629;SDS011;34426;52.180;4.462;2023-04-02T02:12:31;15.23;;;8.00;;
48629;SDS011;34426;52.180;4.462;2023-04-02T02:15:12;15.05;;;6.90;;
48629;SDS011;34426;52.180;4.462;2023-04-02T02:17:44;15.00;;;7.55;;
48629;SDS011;34426;52.180;4.462;2023-04-02T02:20:23;19.45;;;7.65;;
48629;SDS011;34426;52.180;4.462;2023-04-02T02:22:58;11.18;;;7.57;;
48629;SDS011;34426;52.180;4.462;2023-04-02T02:25:29;18.73;;;8.93;;
48629;SDS011;34426;52.180;4.462;2023-04-02T02:28:02;11.07;;;7.10;;
48629;SDS011;34426;52.180;4.462;2023-04-02T02:30:45;18.77;;;8.07;;
48629;SDS011;34426;52.180;4.462;2023-04-02T02:33:22;13.23;;;7.45;;
48629;SDS011;34426;52.180;4.462;2023-04-02T02:36:01;13.80;;;7.15;;
48629;SDS011;34426;52.180;4.462;2023-04-02T02:38:45;11.88;;;7.63;;
48629;SDS011;34426;52.180;4.462;2023-04-02T02:41:32;12.60;;;7.50;;
48629;SDS011;34426;52.180;4.462;2023-04-02T02:44:13;16.48;;;7.63;;
48629;SDS011;34426;52.180;4.462;2023-04-02T02:46:48;12.02;;;7.38;;
48629;SDS011;34426;52.180;4.462;2023-04-02T02:49:31;15.50;;;7.35;;
48629;SDS011;34426;52.180;4.462;2023-04-02T02:52:05;11.25;;;6.68;;
48629;SDS011;34426;52.180;4.462;2023-04-02T02:54:39;10.15;;;6.28;;
48629;SDS011;34426;52.180;4.462;2023-04-02T02:57:14;9.95;;;6.45;;
48629;SDS011;34426;52.180;4.462;2023-04-02T03:02:58;11.93;;;6.32;;
48629;SDS011;34426;52.180;4.462;2023-04-02T03:05:34;8.93;;;6.55;;
48629;SDS011;34426;52.180;4.462;2023-04-02T03:08:12;10.98;;;6.28;;
48629;SDS011;34426;52.180;4.462;2023-04-02T03:13:36;10.65;;;6.97;;
48629;SDS011;34426;52.180;4.462;2023-04-02T03:16:11;7.97;;;5.28;;
48629;SDS011;34426;52.180;4.462;2023-04-02T03:18:46;7.97;;;5.40;;
48629;SDS011;34426;52.180;4.462;2023-04-02T03:21:28;12.07;;;5.90;;
48629;SDS011;34426;52.180;4.462;2023-04-02T03:24:04;9.23;;;5.95;;
48629;SDS011;34426;52.180;4.462;2023-04-02T03:26:42;8.50;;;5.53;;
48629;SDS011;34426;52.180;4.462;2023-04-02T03:29:21;10.73;;;6.22;;
48629;SDS011;34426;52.180;4.462;2023-04-02T03:31:55;7.80;;;5.70;;
48629;SDS011;34426;52.180;4.462;2023-04-02T03:34:27;10.52;;;6.03;;
48629;SDS011;34426;52.180;4.462;2023-04-02T03:37:17;9.45;;;5.90;;
48629;SDS011;34426;52.180;4.462;2023-04-02T03:39:59;6.28;;;5.10;;
48629;SDS011;34426;52.180;4.462;2023-04-02T03:42:38;7.53;;;5.25;;
48629;SDS011;34426;52.180;4.462;2023-04-02T03:47:54;9.23;;;6.38;;
48629;SDS011;34426;52.180;4.462;2023-04-02T03:50:26;7.90;;;5.45;;
48629;SDS011;34426;52.180;4.462;2023-04-02T03:53:11;10.30;;;5.50;;
48629;SDS011;34426;52.180;4.462;2023-04-02T03:55:51;7.57;;;5.32;;
48629;SDS011;34426;52.180;4.462;2023-04-02T03:58:27;9.07;;;5.72;;
48629;SDS011;34426;52.180;4.462;2023-04-02T04:01:11;10.32;;;5.78;;
48629;SDS011;34426;52.180;4.462;2023-04-02T04:03:44;8.45;;;5.43;;
48629;SDS011;34426;52.180;4.462;2023-04-02T04:06:15;8.10;;;5.53;;
48629;SDS011;34426;52.180;4.462;2023-04-02T04:08:53;9.35;;;5.97;;
48629;SDS011;34426;52.180;4.462;2023-04-02T04:11:29;7.32;;;5.78;;
48629;SDS011;34426;52.180;4.462;2023-04-02T04:14:02;7.65;;;6.03;;
48629;SDS011;34426;52.180;4.462;2023-04-02T04:16:39;11.18;;;7.07;;
48629;SDS011;34426;52.180;4.462;2023-04-02T04:19:24;8.38;;;6.40;;
48629;SDS011;34426;52.180;4.462;2023-04-02T04:22:13;7.47;;;6.00;;
48629;SDS011;34426;52.180;4.462;2023-04-02T04:24:44;8.40;;;6.00;;
48629;SDS011;34426;52.180;4.462;2023-04-02T04:27:18;6.07;;;5.13;;
48629;SDS011;34426;52.180;4.462;2023-04-02T04:29:56;8.73;;;5.50;;
48629;SDS011;34426;52.180;4.462;2023-04-02T04:32:39;6.95;;;4.65;;
48629;SDS011;34426;52.180;4.462;2023-04-02T04:35:14;7.45;;;5.28;;
48629;SDS011;34426;52.180;4.462;2023-04-02T04:37:54;7.55;;;4.90;;
48629;SDS011;34426;52.180;4.462;2023-04-02T04:40:41;8.82;;;5.85;;
48629;SDS011;34426;52.180;4.462;2023-04-02T04:43:14;9.45;;;5.15;;
48629;SDS011;34426;52.180;4.462;2023-04-02T04:46:03;6.90;;;5.38;;
48629;SDS011;34426;52.180;4.462;2023-04-02T04:48:58;9.20;;;5.25;;
48629;SDS011;34426;52.180;4.462;2023-04-02T04:51:53;9.85;;;5.95;;
48629;SDS011;34426;52.180;4.462;2023-04-02T04:54:25;9.52;;;5.43;;
48629;SDS011;34426;52.180;4.462;2023-04-02T04:57:20;10.73;;;5.65;;
48629;SDS011;34426;52.180;4.462;2023-04-02T04:59:58;10.18;;;6.32;;
48629;SDS011;34426;52.180;4.462;2023-04-02T05:02:34;15.90;;;5.05;;
48629;SDS011;34426;52.180;4.462;2023-04-02T05:05:15;6.95;;;5.05;;
48629;SDS011;34426;52.180;4.462;2023-04-02T05:07:50;10.52;;;5.50;;
48629;SDS011;34426;52.180;4.462;2023-04-02T05:10:27;9.20;;;5.22;;
48629;SDS011;34426;52.180;4.462;2023-04-02T05:13:10;11.40;;;5.32;;
48629;SDS011;34426;52.180;4.462;2023-04-02T05:15:52;8.82;;;5.85;;
48629;SDS011;34426;52.180;4.462;2023-04-02T05:18:33;11.82;;;5.90;;
48629;SDS011;34426;52.180;4.462;2023-04-02T05:24:12;10.02;;;5.80;;
48629;SDS011;34426;52.180;4.462;2023-04-02T05:27:08;8.45;;;5.60;;
48629;SDS011;34426;52.180;4.462;2023-04-02T05:30:11;7.00;;;5.90;;
48629;SDS011;34426;52.180;4.462;2023-04-02T05:32:58;14.40;;;6.18;;
48629;SDS011;34426;52.180;4.462;2023-04-02T05:35:33;13.07;;;5.93;;
48629;SDS011;34426;52.180;4.462;2023-04-02T05:38:31;10.13;;;5.63;;
48629;SDS011;34426;52.180;4.462;2023-04-02T05:41:13;11.05;;;5.90;;
48629;SDS011;34426;52.180;4.462;2023-04-02T05:44:14;11.85;;;5.60;;
48629;SDS011;34426;52.180;4.462;2023-04-02T05:46:53;15.38;;;5.07;;
48629;SDS011;34426;52.180;4.462;2023-04-02T05:49:30;9.65;;;5.00;;
48629;SDS011;34426;52.180;4.462;2023-04-02T05:52:05;11.25;;;5.28;;
48629;SDS011;34426;52.180;4.462;2023-04-02T05:54:43;9.00;;;4.25;;
48629;SDS011;34426;52.180;4.462;2023-04-02T05:57:14;11.27;;;4.82;;
48629;SDS011;34426;52.180;4.462;2023-04-02T05:59:48;8.25;;;4.60;;
48629;SDS011;34426;52.180;4.462;2023-04-02T06:02:22;12.40;;;5.15;;
48629;SDS011;34426;52.180;4.462;2023-04-02T06:04:59;22.05;;;10.77;;
48629;SDS011;34426;52.180;4.462;2023-04-02T06:07:40;32.83;;;16.05;;
48629;SDS011;34426;52.180;4.462;2023-04-02T06:12:48;14.65;;;5.55;;
48629;SDS011;34426;52.180;4.462;2023-04-02T06:15:19;8.45;;;4.10;;
48629;SDS011;34426;52.180;4.462;2023-04-02T06:23:09;7.65;;;4.50;;
48629;SDS011;34426;52.180;4.462;2023-04-02T06:25:43;6.75;;;3.97;;
48629;SDS011;34426;52.180;4.462;2023-04-02T06:28:30;6.72;;;4.32;;
48629;SDS011;34426;52.180;4.462;2023-04-02T06:31:06;6.50;;;3.63;;
48629;SDS011;34426;52.180;4.462;2023-04-02T06:33:45;12.88;;;4.60;;
48629;SDS011;34426;52.180;4.462;2023-04-02T06:36:12;9.40;;;4.07;;
48629;SDS011;34426;52.180;4.462;2023-04-02T06:38:44;7.57;;;3.33;;
48629;SDS011;34426;52.180;4.462;2023-04-02T06:41:29;5.28;;;3.42;;
48629;SDS011;34426;52.180;4.462;2023-04-02T06:44:00;6.60;;;3.30;;
48629;SDS011;34426;52.180;4.462;2023-04-02T06:46:34;10.00;;;3.90;;
48629;SDS011;34426;52.180;4.462;2023-04-02T06:49:10;8.32;;;3.78;;
48629;SDS011;34426;52.180;4.462;2023-04-02T06:51:44;12.45;;;4.53;;
48629;SDS011;34426;52.180;4.462;2023-04-02T06:54:22;7.97;;;3.60;;
48629;SDS011;34426;52.180;4.462;2023-04-02T06:56:50;13.65;;;4.00;;
48629;SDS011;34426;52.180;4.462;2023-04-02T06:59:21;9.07;;;3.73;;
48629;SDS011;34426;52.180;4.462;2023-04-02T07:01:58;13.45;;;4.22;;
48629;SDS011;34426;52.180;4.462;2023-04-02T07:04:31;11.02;;;3.53;;
48629;SDS011;34426;52.180;4.462;2023-04-02T07:07:02;13.13;;;3.65;;
48629;SDS011;34426;52.180;4.462;2023-04-02T07:09:42;14.33;;;3.60;;
48629;SDS011;34426;52.180;4.462;2023-04-02T07:12:13;8.15;;;4.60;;
48629;SDS011;34426;52.180;4.462;2023-04-02T07:14:45;11.32;;;3.97;;
48629;SDS011;34426;52.180;4.462;2023-04-02T07:17:16;6.72;;;3.38;;
48629;SDS011;34426;52.180;4.462;2023-04-02T07:19:50;15.30;;;4.43;;
48629;SDS011;34426;52.180;4.462;2023-04-02T07:22:23;7.75;;;3.03;;
48629;SDS011;34426;52.180;4.462;2023-04-02T07:25:23;14.60;;;3.30;;
48629;SDS011;34426;52.180;4.462;2023-04-02T07:30:47;10.70;;;3.67;;
48629;SDS011;34426;52.180;4.462;2023-04-02T07:33:20;12.07;;;3.20;;
48629;SDS011;34426;52.180;4.462;2023-04-02T07:35:51;7.03;;;3.00;;
48629;SDS011;34426;52.180;4.462;2023-04-02T07:38:29;10.65;;;3.97;;
48629;SDS011;34426;52.180;4.462;2023-04-02T07:40:56;9.52;;;4.57;;
48629;SDS011;34426;52.180;4.462;2023-04-02T07:43:40;10.63;;;3.85;;
48629;SDS011;34426;52.180;4.462;2023-04-02T07:46:17;11.98;;;3.30;;
48629;SDS011;34426;52.180;4.462;2023-04-02T07:48:54;9.85;;;3.15;;
48629;SDS011;34426;52.180;4.462;2023-04-02T07:51:30;8.73;;;3.42;;
48629;SDS011;34426;52.180;4.462;2023-04-02T07:54:03;8.23;;;2.92;;
48629;SDS011;34426;52.180;4.462;2023-04-02T07:56:47;13.18;;;3.20;;
48629;SDS011;34426;52.180;4.462;2023-04-02T07:59:33;8.57;;;3.08;;
48629;SDS011;34426;52.180;4.462;2023-04-02T08:02:01;10.02;;;2.85;;
48629;SDS011;34426;52.180;4.462;2023-04-02T08:04:44;7.07;;;2.85;;
48629;SDS011;34426;52.180;4.462;2023-04-02T08:07:18;8.18;;;2.15;;
48629;SDS011;34426;52.180;4.462;2023-04-02T08:09:52;8.63;;;2.30;;
48629;SDS011;34426;52.180;4.462;2023-04-02T08:12:20;11.07;;;2.85;;
48629;SDS011;34426;52.180;4.462;2023-04-02T08:14:53;7.88;;;2.33;;
48629;SDS011;34426;52.180;4.462;2023-04-02T08:17:28;12.13;;;2.92;;
48629;SDS011;34426;52.180;4.462;2023-04-02T08:20:01;10.35;;;3.05;;
48629;SDS011;34426;52.180;4.462;2023-04-02T08:22:53;10.00;;;2.90;;
48629;SDS011;34426;52.180;4.462;2023-04-02T08:25:24;7.25;;;2.90;;
48629;SDS011;34426;52.180;4.462;2023-04-02T08:27:58;10.93;;;2.72;;
48629;SDS011;34426;52.180;4.462;2023-04-02T08:30:28;10.95;;;3.28;;
48629;SDS011;34426;52.180;4.462;2023-04-02T08:32:59;7.93;;;2.83;;
48629;SDS011;34426;52.180;4.462;2023-04-02T08:35:27;8.38;;;2.63;;
48629;SDS011;34426;52.180;4.462;2023-04-02T08:38:00;9.10;;;3.20;;
48629;SDS011;34426;52.180;4.462;2023-04-02T08:40:39;9.57;;;2.63;;
48629;SDS011;34426;52.180;4.462;2023-04-02T08:43:20;6.15;;;2.55;;
48629;SDS011;34426;52.180;4.462;2023-04-02T08:46:14;7.03;;;2.40;;
48629;SDS011;34426;52.180;4.462;2023-04-02T08:48:54;9.02;;;2.78;;
48629;SDS011;34426;52.180;4.462;2023-04-02T08:51:41;14.07;;;2.85;;
48629;SDS011;34426;52.180;4.462;2023-04-02T08:54:40;8.15;;;2.78;;
48629;SDS011;34426;52.180;4.462;2023-04-02T08:57:14;6.97;;;2.00;;
48629;SDS011;34426;52.180;4.462;2023-04-02T09:00:24;8.07;;;2.83;;
48629;SDS011;34426;52.180;4.462;2023-04-02T09:03:18;5.05;;;2.05;;
48629;SDS011;34426;52.180;4.462;2023-04-02T09:05:53;8.73;;;2.75;;
48629;SDS011;34426;52.180;4.462;2023-04-02T09:08:25;9.77;;;2.70;;
48629;SDS011;34426;52.180;4.462;2023-04-02T09:11:01;10.75;;;2.63;;
48629;SDS011;34426;52.180;4.462;2023-04-02T09:13:32;9.45;;;2.85;;
48629;SDS011;34426;52.180;4.462;2023-04-02T09:16:06;8.00;;;2.50;;
48629;SDS011;34426;52.180;4.462;2023-04-02T09:18:38;7.38;;;2.55;;
48629;SDS011;34426;52.180;4.462;2023-04-02T09:21:25;12.65;;;3.10;;
48629;SDS011;34426;52.180;4.462;2023-04-02T09:26:52;7.93;;;3.10;;
48629;SDS011;34426;52.180;4.462;2023-04-02T09:29:46;8.00;;;2.30;;
48629;SDS011;34426;52.180;4.462;2023-04-02T09:32:23;8.60;;;2.42;;
48629;SDS011;34426;52.180;4.462;2023-04-02T09:36:27;7.22;;;2.70;;
48629;SDS011;34426;52.180;4.462;2023-04-02T09:38:24;7.97;;;2.42;;
48629;SDS011;34426;52.180;4.462;2023-04-02T09:41:03;7.30;;;2.10;;
48629;SDS011;34426;52.180;4.462;2023-04-02T09:43:48;10.52;;;2.00;;
48629;SDS011;34426;52.180;4.462;2023-04-02T09:46:38;9.23;;;3.05;;
48629;SDS011;34426;52.180;4.462;2023-04-02T09:49:28;8.98;;;2.45;;
48629;SDS011;34426;52.180;4.462;2023-04-02T09:55:04;8.88;;;2.80;;
48629;SDS011;34426;52.180;4.462;2023-04-02T10:03:17;6.82;;;2.63;;
48629;SDS011;34426;52.180;4.462;2023-04-02T10:05:47;9.18;;;2.42;;
48629;SDS011;34426;52.180;4.462;2023-04-02T10:08:32;9.93;;;2.22;;
48629;SDS011;34426;52.180;4.462;2023-04-02T10:10:59;12.70;;;2.50;;
48629;SDS011;34426;52.180;4.462;2023-04-02T10:13:27;9.20;;;1.75;;
48629;SDS011;34426;52.180;4.462;2023-04-02T10:16:02;8.40;;;1.98;;
48629;SDS011;34426;52.180;4.462;2023-04-02T10:18:43;6.85;;;2.35;;
48629;SDS011;34426;52.180;4.462;2023-04-02T10:21:14;7.50;;;1.95;;
48629;SDS011;34426;52.180;4.462;2023-04-02T10:23:53;7.78;;;2.20;;
48629;SDS011;34426;52.180;4.462;2023-04-02T10:26:30;6.03;;;2.15;;
48629;SDS011;34426;52.180;4.462;2023-04-02T10:29:30;10.50;;;2.03;;
48629;SDS011;34426;52.180;4.462;2023-04-02T10:32:08;8.73;;;2.22;;
48629;SDS011;34426;52.180;4.462;2023-04-02T10:34:45;7.65;;;1.92;;
48629;SDS011;34426;52.180;4.462;2023-04-02T10:37:32;9.65;;;2.65;;
48629;SDS011;34426;52.180;4.462;2023-04-02T10:40:23;6.13;;;2.33;;
48629;SDS011;34426;52.180;4.462;2023-04-02T10:43:07;9.02;;;2.13;;
48629;SDS011;34426;52.180;4.462;2023-04-02T10:45:53;11.45;;;1.73;;
48629;SDS011;34426;52.180;4.462;2023-04-02T10:48:30;9.70;;;2.38;;
48629;SDS011;34426;52.180;4.462;2023-04-02T10:51:23;6.72;;;2.25;;
48629;SDS011;34426;52.180;4.462;2023-04-02T10:54:20;7.43;;;2.00;;
48629;SDS011;34426;52.180;4.462;2023-04-02T10:57:10;4.40;;;1.63;;
48629;SDS011;34426;52.180;4.462;2023-04-02T11:00:02;7.97;;;1.67;;
48629;SDS011;34426;52.180;4.462;2023-04-02T11:02:40;7.07;;;1.92;;
48629;SDS011;34426;52.180;4.462;2023-04-02T11:05:28;6.95;;;2.00;;
48629;SDS011;34426;52.180;4.462;2023-04-02T11:08:08;11.93;;;2.50;;
48629;SDS011;34426;52.180;4.462;2023-04-02T11:10:45;6.45;;;2.03;;
48629;SDS011;34426;52.180;4.462;2023-04-02T11:13:19;4.93;;;1.75;;
48629;SDS011;34426;52.180;4.462;2023-04-02T11:15:56;5.40;;;1.90;;
48629;SDS011;34426;52.180;4.462;2023-04-02T11:18:26;5.63;;;2.03;;
48629;SDS011;34426;52.180;4.462;2023-04-02T11:21:06;7.63;;;1.58;;
48629;SDS011;34426;52.180;4.462;2023-04-02T11:23:55;3.72;;;1.38;;
48629;SDS011;34426;52.180;4.462;2023-04-02T11:29:29;6.30;;;1.90;;
48629;SDS011;34426;52.180;4.462;2023-04-02T11:38:46;9.55;;;2.40;;
48629;SDS011;34426;52.180;4.462;2023-04-02T11:44:22;6.18;;;2.00;;
48629;SDS011;34426;52.180;4.462;2023-04-02T11:52:51;7.25;;;2.03;;
48629;SDS011;34426;52.180;4.462;2023-04-02T11:55:26;8.07;;;2.00;;
48629;SDS011;34426;52.180;4.462;2023-04-02T12:10:30;9.15;;;2.22;;
48629;SDS011;34426;52.180;4.462;2023-04-02T12:13:17;5.68;;;2.30;;
48629;SDS011;34426;52.180;4.462;2023-04-02T12:16:08;6.78;;;1.77;;
48629;SDS011;34426;52.180;4.462;2023-04-02T12:18:54;7.70;;;2.42;;
48629;SDS011;34426;52.180;4.462;2023-04-02T12:21:30;6.78;;;2.05;;
48629;SDS011;34426;52.180;4.462;2023-04-02T12:24:11;8.55;;;2.05;;
48629;SDS011;34426;52.180;4.462;2023-04-02T12:27:15;6.35;;;2.15;;
48629;SDS011;34426;52.180;4.462;2023-04-02T12:30:13;9.32;;;2.15;;
48629;SDS011;34426;52.180;4.462;2023-04-02T12:32:51;7.15;;;2.00;;
48629;SDS011;34426;52.180;4.462;2023-04-02T12:38:27;9.93;;;1.95;;
48629;SDS011;34426;52.180;4.462;2023-04-02T12:40:56;6.20;;;2.03;;
48629;SDS011;34426;52.180;4.462;2023-04-02T12:43:33;9.97;;;2.23;;
48629;SDS011;34426;52.180;4.462;2023-04-02T12:46:03;6.80;;;1.88;;
48629;SDS011;34426;52.180;4.462;2023-04-02T12:48:41;5.30;;;1.83;;
48629;SDS011;34426;52.180;4.462;2023-04-02T12:53:50;3.90;;;1.73;;
48629;SDS011;34426;52.180;4.462;2023-04-02T12:56:35;5.20;;;1.77;;
48629;SDS011;34426;52.180;4.462;2023-04-02T12:59:04;5.63;;;1.98;;
48629;SDS011;34426;52.180;4.462;2023-04-02T13:02:02;4.43;;;1.70;;
48629;SDS011;34426;52.180;4.462;2023-04-02T13:04:45;7.53;;;1.83;;
48629;SDS011;34426;52.180;4.462;2023-04-02T13:07:29;6.45;;;2.22;;
48629;SDS011;34426;52.180;4.462;2023-04-02T13:09:58;4.93;;;2.10;;
48629;SDS011;34426;52.180;4.462;2023-04-02T13:12:30;7.05;;;1.90;;
48629;SDS011;34426;52.180;4.462;2023-04-02T13:15:05;6.65;;;2.22;;
48629;SDS011;34426;52.180;4.462;2023-04-02T13:18:00;7.95;;;2.25;;
48629;SDS011;34426;52.180;4.462;2023-04-02T13:20:35;5.60;;;2.00;;
48629;SDS011;34426;52.180;4.462;2023-04-02T13:23:23;4.00;;;1.90;;
48629;SDS011;34426;52.180;4.462;2023-04-02T13:26:36;6.28;;;2.85;;
48629;SDS011;34426;52.180;4.462;2023-04-02T13:29:17;5.25;;;1.77;;
48629;SDS011;34426;52.180;4.462;2023-04-02T13:31:54;4.38;;;1.70;;
48629;SDS011;34426;52.180;4.462;2023-04-02T13:34:32;7.40;;;2.07;;
48629;SDS011;34426;52.180;4.462;2023-04-02T13:37:11;6.90;;;1.95;;
48629;SDS011;34426;52.180;4.462;2023-04-02T13:39:39;6.93;;;2.15;;
48629;SDS011;34426;52.180;4.462;2023-04-02T13:42:19;5.47;;;2.00;;
48629;SDS011;34426;52.180;4.462;2023-04-02T13:45:10;8.95;;;1.77;;
48629;SDS011;34426;52.180;4.462;2023-04-02T13:47:53;5.72;;;1.95;;
48629;SDS011;34426;52.180;4.462;2023-04-02T13:52:51;7.25;;;2.10;;
48629;SDS011;34426;52.180;4.462;2023-04-02T13:55:29;4.78;;;1.73;;
48629;SDS011;34426;52.180;4.462;2023-04-02T13:58:04;3.97;;;1.70;;
48629;SDS011;34426;52.180;4.462;2023-04-02T14:00:37;6.03;;;1.60;;
48629;SDS011;34426;52.180;4.462;2023-04-02T14:03:08;5.50;;;2.10;;
48629;SDS011;34426;52.180;4.462;2023-04-02T14:05:51;6.60;;;1.80;;
48629;SDS011;34426;52.180;4.462;2023-04-02T14:08:34;5.50;;;1.95;;
48629;SDS011;34426;52.180;4.462;2023-04-02T14:11:36;5.65;;;1.63;;
48629;SDS011;34426;52.180;4.462;2023-04-02T14:17:14;5.95;;;1.88;;
48629;SDS011;34426;52.180;4.462;2023-04-02T14:19:57;5.13;;;1.65;;
48629;SDS011;34426;52.180;4.462;2023-04-02T14:22:49;4.13;;;1.67;;
48629;SDS011;34426;52.180;4.462;2023-04-02T14:25:33;6.43;;;2.20;;
48629;SDS011;34426;52.180;4.462;2023-04-02T14:28:16;8.43;;;1.98;;
48629;SDS011;34426;52.180;4.462;2023-04-02T14:33:57;8.73;;;1.83;;
48629;SDS011;34426;52.180;4.462;2023-04-02T14:36:44;4.20;;;1.52;;
48629;SDS011;34426;52.180;4.462;2023-04-02T14:39:35;4.18;;;1.70;;
48629;SDS011;34426;52.180;4.462;2023-04-02T14:42:14;5.05;;;1.67;;
48629;SDS011;34426;52.180;4.462;2023-04-02T14:44:49;3.83;;;1.50;;
48629;SDS011;34426;52.180;4.462;2023-04-02T14:47:24;4.47;;;1.65;;
48629;SDS011;34426;52.180;4.462;2023-04-02T14:50:03;3.72;;;2.05;;
48629;SDS011;34426;52.180;4.462;2023-04-02T14:52:49;5.57;;;1.92;;
48629;SDS011;34426;52.180;4.462;2023-04-02T14:55:25;5.97;;;1.60;;
48629;SDS011;34426;52.180;4.462;2023-04-02T14:58:14;3.63;;;1.88;;
48629;SDS011;34426;52.180;4.462;2023-04-02T15:00:50;3.42;;;1.50;;
48629;SDS011;34426;52.180;4.462;2023-04-02T15:03:31;4.78;;;1.80;;
48629;SDS011;34426;52.180;4.462;2023-04-02T15:08:57;4.03;;;1.55;;
48629;SDS011;34426;52.180;4.462;2023-04-02T15:11:35;3.45;;;1.27;;
48629;SDS011;34426;52.180;4.462;2023-04-02T15:14:10;3.72;;;1.83;;
48629;SDS011;34426;52.180;4.462;2023-04-02T15:16:51;5.18;;;1.83;;
48629;SDS011;34426;52.180;4.462;2023-04-02T15:19:19;5.05;;;1.70;;
48629;SDS011;34426;52.180;4.462;2023-04-02T15:21:58;4.95;;;1.60;;
48629;SDS011;34426;52.180;4.462;2023-04-02T15:27:48;6.15;;;2.08;;
48629;SDS011;34426;52.180;4.462;2023-04-02T15:30:28;5.13;;;1.92;;
48629;SDS011;34426;52.180;4.462;2023-04-02T15:36:04;5.28;;;1.67;;
48629;SDS011;34426;52.180;4.462;2023-04-02T15:39:01;4.90;;;1.63;;
48629;SDS011;34426;52.180;4.462;2023-04-02T15:41:45;6.80;;;1.52;;
48629;SDS011;34426;52.180;4.462;2023-04-02T15:44:31;5.47;;;1.70;;
48629;SDS011;34426;52.180;4.462;2023-04-02T15:47:07;4.53;;;1.58;;
48629;SDS011;34426;52.180;4.462;2023-04-02T15:49:49;8.05;;;1.77;;
48629;SDS011;34426;52.180;4.462;2023-04-02T15:52:30;3.45;;;1.38;;
48629;SDS011;34426;52.180;4.462;2023-04-02T15:55:09;4.10;;;1.67;;
48629;SDS011;34426;52.180;4.462;2023-04-02T15:58:00;7.07;;;1.83;;
48629;SDS011;34426;52.180;4.462;2023-04-02T16:00:52;7.20;;;1.65;;
48629;SDS011;34426;52.180;4.462;2023-04-02T16:03:32;5.40;;;1.45;;
48629;SDS011;34426;52.180;4.462;2023-04-02T16:09:06;3.30;;;1.60;;
48629;SDS011;34426;52.180;4.462;2023-04-02T16:11:47;3.75;;;1.85;;
48629;SDS011;34426;52.180;4.462;2023-04-02T16:14:28;4.90;;;1.52;;
48629;SDS011;34426;52.180;4.462;2023-04-02T16:16:57;6.00;;;1.35;;
48629;SDS011;34426;52.180;4.462;2023-04-02T16:19:34;4.03;;;1.70;;
48629;SDS011;34426;52.180;4.462;2023-04-02T16:22:30;5.80;;;1.50;;
48629;SDS011;34426;52.180;4.462;2023-04-02T16:25:13;5.15;;;1.60;;
48629;SDS011;34426;52.180;4.462;2023-04-02T16:27:51;3.80;;;1.20;;
48629;SDS011;34426;52.180;4.462;2023-04-02T16:30:38;3.88;;;1.35;;
48629;SDS011;34426;52.180;4.462;2023-04-02T16:36:35;5.72;;;1.70;;
48629;SDS011;34426;52.180;4.462;2023-04-02T16:39:13;5.90;;;1.52;;
48629;SDS011;34426;52.180;4.462;2023-04-02T16:42:04;3.35;;;1.70;;
48629;SDS011;34426;52.180;4.462;2023-04-02T16:44:49;4.18;;;1.75;;
48629;SDS011;34426;52.180;4.462;2023-04-02T16:47:49;4.88;;;1.65;;
48629;SDS011;34426;52.180;4.462;2023-04-02T16:50:47;8.40;;;2.17;;
48629;SDS011;34426;52.180;4.462;2023-04-02T16:53:29;5.05;;;3.00;;
48629;SDS011;34426;52.180;4.462;2023-04-02T16:56:06;6.78;;;3.10;;
48629;SDS011;34426;52.180;4.462;2023-04-02T16:58:48;7.70;;;4.28;;
48629;SDS011;34426;52.180;4.462;2023-04-02T17:01:32;5.18;;;2.00;;
48629;SDS011;34426;52.180;4.462;2023-04-02T17:04:35;4.93;;;1.90;;
48629;SDS011;34426;52.180;4.462;2023-04-02T17:07:26;4.15;;;1.33;;
48629;SDS011;34426;52.180;4.462;2023-04-02T17:10:25;6.47;;;1.60;;
48629;SDS011;34426;52.180;4.462;2023-04-02T17:13:11;3.45;;;1.48;;
48629;SDS011;34426;52.180;4.462;2023-04-02T17:15:52;5.75;;;1.92;;
48629;SDS011;34426;52.180;4.462;2023-04-02T17:18:40;3.97;;;1.80;;
48629;SDS011;34426;52.180;4.462;2023-04-02T17:21:16;7.20;;;3.58;;
48629;SDS011;34426;52.180;4.462;2023-04-02T17:23:50;22.10;;;12.88;;
48629;SDS011;34426;52.180;4.462;2023-04-02T17:26:19;6.68;;;3.95;;
48629;SDS011;34426;52.180;4.462;2023-04-02T17:28:58;8.57;;;4.70;;
48629;SDS011;34426;52.180;4.462;2023-04-02T17:31:35;6.90;;;2.00;;
48629;SDS011;34426;52.180;4.462;2023-04-02T17:34:11;5.03;;;1.70;;
48629;SDS011;34426;52.180;4.462;2023-04-02T17:36:43;3.88;;;1.55;;
48629;SDS011;34426;52.180;4.462;2023-04-02T17:39:23;7.10;;;1.70;;
48629;SDS011;34426;52.180;4.462;2023-04-02T17:41:57;5.80;;;1.58;;